UAL1527 KSLC-KLAX
Flight info
| Callsign | UAL1527 |
|---|---|
| Flight time | N/A |
| Altitude | 36000 |
| Route | ARCHZ1 WINEN LAKRR Q88 HAKMN ANJLL4 |
| Aircraft | B738/M-SDE2E3FGHIRWXY/LB1 |
Departure
| Time | 2026-05-06 23:16 |
|---|---|
| Airport | Salt Lake City International Airport (KSLC) |
Arrival
| Time | N/A |
|---|---|
| Airport | Los Angeles International Airport (KLAX) |
| Time | Latitude | Longitude | Altitude | Speed | Heading |
|---|---|---|---|---|---|
| 2026-05-06 22:46 | 40.78946 | -111.98826 | 4230 ft | 0 kts | 176° |
| 2026-05-06 23:03 | 40.78952 | -111.98827 | 4235 ft | 2 kts | 176° |
| 2026-05-06 23:03 | 40.78968 | -111.98828 | 4229 ft | 2 kts | 176° |
| 2026-05-06 23:04 | 40.78985 | -111.98830 | 4230 ft | 2 kts | 176° |
| 2026-05-06 23:04 | 40.79001 | -111.98832 | 4229 ft | 2 kts | 159° |
| 2026-05-06 23:04 | 40.79013 | -111.98843 | 4229 ft | 1 kts | 95° |
| 2026-05-06 23:04 | 40.79013 | -111.98853 | 4229 ft | 0 kts | 82° |
| 2026-05-06 23:06 | 40.79017 | -111.98822 | 4230 ft | 9 kts | 83° |
| 2026-05-06 23:06 | 40.79018 | -111.98704 | 4230 ft | 15 kts | 92° |
| 2026-05-06 23:07 | 40.79066 | -111.98613 | 4231 ft | 12 kts | 5° |
| 2026-05-06 23:07 | 40.79145 | -111.98612 | 4232 ft | 9 kts | 32° |
| 2026-05-06 23:07 | 40.79155 | -111.98563 | 4231 ft | 8 kts | 85° |
| 2026-05-06 23:07 | 40.79156 | -111.98536 | 4231 ft | 11 kts | 85° |
| 2026-05-06 23:09 | 40.79158 | -111.98512 | 4231 ft | 13 kts | 85° |
| 2026-05-06 23:10 | 40.79169 | -111.98355 | 4231 ft | 20 kts | 85° |
| 2026-05-06 23:10 | 40.79179 | -111.98181 | 4231 ft | 18 kts | 85° |
| 2026-05-06 23:10 | 40.79187 | -111.98051 | 4233 ft | 10 kts | 84° |
| 2026-05-06 23:10 | 40.79190 | -111.98003 | 4234 ft | 0 kts | 85° |
| 2026-05-06 23:11 | 40.79196 | -111.97937 | 4235 ft | 15 kts | 83° |
| 2026-05-06 23:11 | 40.79204 | -111.97817 | 4234 ft | 11 kts | 85° |
| 2026-05-06 23:11 | 40.79194 | -111.97745 | 4233 ft | 5 kts | 133° |
| 2026-05-06 23:11 | 40.79124 | -111.97722 | 4236 ft | 15 kts | 175° |
| 2026-05-06 23:12 | 40.79025 | -111.97711 | 4239 ft | 14 kts | 175° |
| 2026-05-06 23:12 | 40.78917 | -111.97698 | 4239 ft | 18 kts | 175° |
| 2026-05-06 23:12 | 40.78782 | -111.97683 | 4237 ft | 20 kts | 175° |
| 2026-05-06 23:12 | 40.78649 | -111.97669 | 4237 ft | 19 kts | 175° |
| 2026-05-06 23:13 | 40.78519 | -111.97654 | 4233 ft | 19 kts | 174° |
| 2026-05-06 23:13 | 40.78386 | -111.97637 | 4230 ft | 19 kts | 174° |
| 2026-05-06 23:13 | 40.78256 | -111.97622 | 4230 ft | 18 kts | 175° |
| 2026-05-06 23:13 | 40.78131 | -111.97609 | 4229 ft | 18 kts | 174° |
| 2026-05-06 23:14 | 40.78011 | -111.97592 | 4230 ft | 17 kts | 174° |
| 2026-05-06 23:14 | 40.77899 | -111.97553 | 4232 ft | 16 kts | 154° |
| 2026-05-06 23:14 | 40.77827 | -111.97524 | 4232 ft | 16 kts | 174° |
| 2026-05-06 23:14 | 40.77718 | -111.97512 | 4235 ft | 15 kts | 175° |
| 2026-05-06 23:15 | 40.77612 | -111.97498 | 4235 ft | 16 kts | 174° |
| 2026-05-06 23:15 | 40.77564 | -111.97380 | 4233 ft | 19 kts | 73° |
| 2026-05-06 23:15 | 40.77669 | -111.97338 | 4233 ft | 16 kts | 354° |
| 2026-05-06 23:15 | 40.77951 | -111.97372 | 4233 ft | 76 kts | 354° |
| 2026-05-06 23:16 | 40.78705 | -111.97456 | 4236 ft | 139 kts | 355° |
| 2026-05-06 23:16 | 40.79826 | -111.97560 | 4456 ft | 175 kts | 352° |
| 2026-05-06 23:16 | 40.81132 | -111.97699 | 4997 ft | 200 kts | 346° |
| 2026-05-06 23:16 | 40.82395 | -111.98568 | 5385 ft | 214 kts | 312° |
| 2026-05-06 23:17 | 40.83138 | -112.00335 | 5899 ft | 232 kts | 282° |
| 2026-05-06 23:17 | 40.83210 | -112.02546 | 6353 ft | 252 kts | 270° |
| 2026-05-06 23:17 | 40.83186 | -112.04973 | 6674 ft | 274 kts | 271° |
| 2026-05-06 23:17 | 40.83193 | -112.07528 | 7344 ft | 278 kts | 271° |
| 2026-05-06 23:18 | 40.83061 | -112.10062 | 8164 ft | 281 kts | 256° |
| 2026-05-06 23:18 | 40.82209 | -112.12385 | 8784 ft | 285 kts | 239° |
| 2026-05-06 23:18 | 40.81110 | -112.14578 | 9349 ft | 287 kts | 238° |
| 2026-05-06 23:18 | 40.80024 | -112.16790 | 9904 ft | 289 kts | 240° |
| 2026-05-06 23:19 | 40.78973 | -112.19077 | 10433 ft | 294 kts | 242° |
| 2026-05-06 23:19 | 40.77931 | -112.21437 | 10965 ft | 302 kts | 243° |
| 2026-05-06 23:19 | 40.76873 | -112.23872 | 11517 ft | 310 kts | 243° |
| 2026-05-06 23:19 | 40.75584 | -112.26201 | 12040 ft | 323 kts | 224° |
| 2026-05-06 23:20 | 40.73609 | -112.27699 | 12594 ft | 336 kts | 198° |
| 2026-05-06 23:20 | 40.71296 | -112.28313 | 13215 ft | 343 kts | 189° |
| 2026-05-06 23:20 | 40.68907 | -112.28761 | 13790 ft | 351 kts | 188° |
| 2026-05-06 23:20 | 40.66456 | -112.29198 | 14320 ft | 359 kts | 188° |
| 2026-05-06 23:21 | 40.63954 | -112.29665 | 14856 ft | 367 kts | 189° |
| 2026-05-06 23:21 | 40.61413 | -112.30166 | 15382 ft | 371 kts | 189° |
| 2026-05-06 23:21 | 40.58886 | -112.30677 | 15904 ft | 374 kts | 190° |
| 2026-05-06 23:21 | 40.56267 | -112.31244 | 16452 ft | 377 kts | 193° |
| 2026-05-06 23:22 | 40.53756 | -112.32133 | 16997 ft | 380 kts | 198° |
| 2026-05-06 23:22 | 40.51189 | -112.33196 | 17563 ft | 382 kts | 199° |
| 2026-05-06 23:22 | 40.48653 | -112.34278 | 18124 ft | 386 kts | 200° |
| 2026-05-06 23:22 | 40.46077 | -112.35374 | 18673 ft | 391 kts | 199° |
| 2026-05-06 23:23 | 40.43474 | -112.36465 | 19173 ft | 394 kts | 199° |
| 2026-05-06 23:23 | 40.40883 | -112.37538 | 19678 ft | 398 kts | 199° |
| 2026-05-06 23:23 | 40.38234 | -112.38624 | 20182 ft | 401 kts | 199° |
| 2026-05-06 23:23 | 40.35561 | -112.39716 | 20714 ft | 404 kts | 199° |
| 2026-05-06 23:24 | 40.32862 | -112.40814 | 21235 ft | 407 kts | 199° |
| 2026-05-06 23:24 | 40.30145 | -112.41919 | 21792 ft | 410 kts | 199° |
| 2026-05-06 23:24 | 40.27413 | -112.43030 | 22341 ft | 412 kts | 199° |
| 2026-05-06 23:24 | 40.24669 | -112.44145 | 22901 ft | 414 kts | 198° |
| 2026-05-06 23:25 | 40.21887 | -112.45275 | 23131 ft | 425 kts | 198° |
| 2026-05-06 23:25 | 40.19036 | -112.46449 | 23188 ft | 431 kts | 201° |
| 2026-05-06 23:25 | 40.16293 | -112.48001 | 23686 ft | 429 kts | 210° |
| 2026-05-06 23:25 | 40.13674 | -112.49842 | 24258 ft | 427 kts | 211° |
| 2026-05-06 23:26 | 40.11065 | -112.51717 | 24681 ft | 430 kts | 211° |
| 2026-05-06 23:26 | 40.08423 | -112.53620 | 25032 ft | 436 kts | 211° |
| 2026-05-06 23:26 | 40.05756 | -112.55528 | 25396 ft | 440 kts | 211° |
| 2026-05-06 23:26 | 40.03057 | -112.57443 | 25809 ft | 443 kts | 210° |
| 2026-05-06 23:27 | 40.00333 | -112.59364 | 26173 ft | 447 kts | 210° |
| 2026-05-06 23:27 | 39.97586 | -112.61292 | 26542 ft | 450 kts | 210° |
| 2026-05-06 23:27 | 39.94816 | -112.63232 | 26900 ft | 454 kts | 210° |
| 2026-05-06 23:27 | 39.92020 | -112.65187 | 27261 ft | 457 kts | 210° |
| 2026-05-06 23:28 | 39.89210 | -112.67151 | 27603 ft | 461 kts | 210° |
| 2026-05-06 23:28 | 39.86373 | -112.69132 | 27932 ft | 464 kts | 210° |
| 2026-05-06 23:28 | 39.83517 | -112.71126 | 28261 ft | 467 kts | 210° |
| 2026-05-06 23:28 | 39.80640 | -112.73132 | 28599 ft | 470 kts | 210° |
| 2026-05-06 23:29 | 39.77747 | -112.75148 | 28932 ft | 474 kts | 210° |
| 2026-05-06 23:29 | 39.74836 | -112.77174 | 29244 ft | 477 kts | 210° |
| 2026-05-06 23:29 | 39.71899 | -112.79217 | 29546 ft | 480 kts | 210° |
| 2026-05-06 23:29 | 39.68943 | -112.81254 | 29864 ft | 483 kts | 207° |
| 2026-05-06 23:30 | 39.65839 | -112.82950 | 30146 ft | 487 kts | 199° |
| 2026-05-06 23:30 | 39.62600 | -112.84281 | 30405 ft | 489 kts | 197° |
| 2026-05-06 23:30 | 39.59336 | -112.85544 | 30688 ft | 491 kts | 196° |
| 2026-05-06 23:30 | 39.56051 | -112.86792 | 30958 ft | 492 kts | 196° |
| 2026-05-06 23:31 | 39.52759 | -112.88050 | 31219 ft | 494 kts | 197° |
| 2026-05-06 23:31 | 39.49466 | -112.89324 | 31519 ft | 495 kts | 197° |
| 2026-05-06 23:31 | 39.46169 | -112.90615 | 31881 ft | 493 kts | 197° |
| 2026-05-06 23:31 | 39.42892 | -112.91908 | 32280 ft | 492 kts | 197° |
| 2026-05-06 23:32 | 39.39625 | -112.93204 | 32624 ft | 491 kts | 197° |
| 2026-05-06 23:32 | 39.36504 | -112.94442 | 32915 ft | 491 kts | 197° |
| 2026-05-06 23:32 | 39.33238 | -112.95738 | 33209 ft | 491 kts | 197° |
| 2026-05-06 23:32 | 39.29978 | -112.97030 | 33546 ft | 490 kts | 197° |
| 2026-05-06 23:33 | 39.26717 | -112.98320 | 33897 ft | 489 kts | 197° |
| 2026-05-06 23:33 | 39.23466 | -112.99605 | 34188 ft | 489 kts | 197° |
| 2026-05-06 23:33 | 39.20215 | -113.00887 | 34449 ft | 488 kts | 197° |
| 2026-05-06 23:33 | 39.16974 | -113.02164 | 34760 ft | 486 kts | 197° |
| 2026-05-06 23:34 | 39.13746 | -113.03435 | 35065 ft | 484 kts | 197° |
| 2026-05-06 23:34 | 39.10528 | -113.04700 | 35363 ft | 483 kts | 197° |
| 2026-05-06 23:34 | 39.07321 | -113.05960 | 35621 ft | 482 kts | 197° |
| 2026-05-06 23:34 | 39.04112 | -113.07219 | 35870 ft | 481 kts | 197° |
| 2026-05-06 23:35 | 39.00918 | -113.08472 | 36103 ft | 481 kts | 197° |
| 2026-05-06 23:35 | 38.94469 | -113.10997 | 36076 ft | 485 kts | 197° |
| 2026-05-06 23:36 | 38.88037 | -113.13511 | 36067 ft | 480 kts | 197° |
| 2026-05-06 23:36 | 38.81674 | -113.15993 | 36071 ft | 477 kts | 197° |
| 2026-05-06 23:37 | 38.75335 | -113.18461 | 36092 ft | 483 kts | 197° |
| 2026-05-06 23:37 | 38.68793 | -113.21004 | 36104 ft | 492 kts | 197° |
| 2026-05-06 23:38 | 38.62227 | -113.23551 | 36114 ft | 494 kts | 197° |
| 2026-05-06 23:38 | 38.55635 | -113.26103 | 36108 ft | 495 kts | 197° |
| 2026-05-06 23:38 | 38.52380 | -113.27361 | 35913 ft | 495 kts | 197° |
| 2026-05-06 23:39 | 38.49088 | -113.28632 | 35978 ft | 493 kts | 198° |
| 2026-05-06 23:39 | 38.42542 | -113.31156 | 36088 ft | 491 kts | 198° |
| 2026-05-06 23:40 | 38.36013 | -113.33670 | 36099 ft | 491 kts | 198° |
| 2026-05-06 23:40 | 38.29471 | -113.36184 | 36090 ft | 491 kts | 198° |
| 2026-05-06 23:41 | 38.22925 | -113.38695 | 36072 ft | 491 kts | 198° |
| 2026-05-06 23:41 | 38.16372 | -113.41203 | 36063 ft | 492 kts | 197° |
| 2026-05-06 23:42 | 38.09806 | -113.43712 | 36059 ft | 493 kts | 197° |
| 2026-05-06 23:42 | 38.03232 | -113.46219 | 36053 ft | 494 kts | 197° |
| 2026-05-06 23:43 | 37.96651 | -113.48725 | 36049 ft | 494 kts | 197° |
| 2026-05-06 23:43 | 37.90089 | -113.51285 | 36049 ft | 494 kts | 199° |
| 2026-05-06 23:44 | 37.83591 | -113.54123 | 36047 ft | 494 kts | 200° |
| 2026-05-06 23:44 | 37.77113 | -113.57011 | 36040 ft | 494 kts | 200° |
| 2026-05-06 23:45 | 37.70624 | -113.59862 | 36036 ft | 494 kts | 199° |
| 2026-05-06 23:45 | 37.64131 | -113.62680 | 36033 ft | 493 kts | 199° |
| 2026-05-06 23:46 | 37.57637 | -113.65485 | 36026 ft | 494 kts | 199° |
| 2026-05-06 23:46 | 37.51129 | -113.68291 | 36013 ft | 494 kts | 199° |
| 2026-05-06 23:47 | 37.44667 | -113.71075 | 35999 ft | 494 kts | 199° |
| 2026-05-06 23:47 | 37.40321 | -113.72945 | 36001 ft | 494 kts | 199° |
| 2026-05-06 23:48 | 37.38239 | -113.73840 | 35985 ft | 494 kts | 199° |
| 2026-05-06 23:48 | 37.31737 | -113.76631 | 35984 ft | 494 kts | 199° |
| 2026-05-06 23:49 | 37.25238 | -113.79416 | 35982 ft | 493 kts | 199° |
| 2026-05-06 23:49 | 37.18746 | -113.82193 | 35976 ft | 493 kts | 199° |
| 2026-05-06 23:50 | 37.12242 | -113.84970 | 35968 ft | 494 kts | 199° |
| 2026-05-06 23:50 | 37.02484 | -113.89126 | 35952 ft | 493 kts | 199° |
| 2026-05-06 23:51 | 36.95991 | -113.91886 | 35946 ft | 493 kts | 199° |
| 2026-05-06 23:51 | 36.89505 | -113.94638 | 35941 ft | 492 kts | 199° |
| 2026-05-06 23:52 | 36.83021 | -113.97384 | 35937 ft | 492 kts | 198° |
| 2026-05-06 23:52 | 36.76537 | -114.00125 | 35932 ft | 492 kts | 198° |
| 2026-05-06 23:53 | 36.70052 | -114.02862 | 35929 ft | 492 kts | 198° |
| 2026-05-06 23:53 | 36.63556 | -114.05599 | 35931 ft | 493 kts | 198° |
| 2026-05-06 23:54 | 36.57066 | -114.08327 | 35922 ft | 492 kts | 198° |
| 2026-05-06 23:54 | 36.50577 | -114.11051 | 35922 ft | 491 kts | 198° |
| 2026-05-06 23:55 | 36.44103 | -114.13764 | 35916 ft | 491 kts | 198° |
| 2026-05-06 23:55 | 36.37625 | -114.16474 | 35911 ft | 492 kts | 198° |
| 2026-05-06 23:56 | 36.31136 | -114.19183 | 35914 ft | 492 kts | 198° |
| 2026-05-06 23:56 | 36.24641 | -114.21891 | 35912 ft | 492 kts | 198° |
| 2026-05-06 23:57 | 36.18143 | -114.24595 | 35908 ft | 493 kts | 198° |
| 2026-05-06 23:57 | 36.11682 | -114.27458 | 35885 ft | 494 kts | 206° |
| 2026-05-06 23:58 | 36.06866 | -114.31202 | 35908 ft | 493 kts | 220° |
| 2026-05-06 23:58 | 36.02094 | -114.37219 | 35909 ft | 490 kts | 231° |
| 2026-05-06 23:59 | 35.97625 | -114.43578 | 35905 ft | 490 kts | 231° |
| 2026-05-06 23:59 | 35.93125 | -114.49899 | 35925 ft | 490 kts | 230° |
| 2026-05-07 00:00 | 35.88687 | -114.56039 | 35933 ft | 490 kts | 230° |
| 2026-05-07 00:00 | 35.84137 | -114.62300 | 35944 ft | 490 kts | 230° |
| 2026-05-07 00:01 | 35.79590 | -114.68551 | 35968 ft | 490 kts | 230° |
| 2026-05-07 00:01 | 35.75046 | -114.74791 | 35986 ft | 490 kts | 230° |
| 2026-05-07 00:02 | 35.70488 | -114.81040 | 35986 ft | 490 kts | 230° |
| 2026-05-07 00:02 | 35.65928 | -114.87280 | 35992 ft | 490 kts | 229° |
| 2026-05-07 00:03 | 35.61380 | -114.93514 | 36014 ft | 490 kts | 230° |
| 2026-05-07 00:03 | 35.56836 | -114.99743 | 36023 ft | 490 kts | 230° |
| 2026-05-07 00:04 | 35.52285 | -115.05969 | 36005 ft | 490 kts | 229° |
| 2026-05-07 00:04 | 35.47686 | -115.12149 | 36018 ft | 490 kts | 228° |
| 2026-05-07 00:05 | 35.43004 | -115.18224 | 36012 ft | 490 kts | 228° |
| 2026-05-07 00:05 | 35.38319 | -115.24288 | 36012 ft | 490 kts | 228° |
| 2026-05-07 00:06 | 35.33640 | -115.30364 | 36006 ft | 491 kts | 228° |
| 2026-05-07 00:06 | 35.28955 | -115.36452 | 36018 ft | 491 kts | 228° |
| 2026-05-07 00:07 | 35.24262 | -115.42538 | 35996 ft | 492 kts | 227° |
| 2026-05-07 00:07 | 35.19559 | -115.48625 | 36002 ft | 492 kts | 227° |
| 2026-05-07 00:08 | 35.14851 | -115.54708 | 35983 ft | 492 kts | 227° |
| 2026-05-07 00:08 | 35.10136 | -115.60778 | 35976 ft | 492 kts | 227° |
| 2026-05-07 00:09 | 35.05405 | -115.66823 | 35980 ft | 492 kts | 227° |
| 2026-05-07 00:09 | 35.00668 | -115.72865 | 35975 ft | 493 kts | 227° |
| 2026-05-07 00:10 | 34.95924 | -115.78910 | 35963 ft | 493 kts | 227° |
| 2026-05-07 00:10 | 34.91175 | -115.84954 | 35968 ft | 494 kts | 227° |
| 2026-05-07 00:11 | 34.86414 | -115.91002 | 35968 ft | 495 kts | 227° |
| 2026-05-07 00:11 | 34.81644 | -115.97052 | 35957 ft | 496 kts | 227° |
| 2026-05-07 00:12 | 34.76881 | -116.03082 | 35891 ft | 487 kts | 227° |
| 2026-05-07 00:12 | 34.74550 | -116.06042 | 35393 ft | 484 kts | 227° |
| 2026-05-07 00:12 | 34.72217 | -116.09013 | 34667 ft | 488 kts | 227° |
| 2026-05-07 00:13 | 34.69860 | -116.12018 | 33883 ft | 494 kts | 227° |
| 2026-05-07 00:13 | 34.67478 | -116.15054 | 33032 ft | 498 kts | 227° |
| 2026-05-07 00:13 | 34.65079 | -116.18107 | 32251 ft | 501 kts | 227° |
| 2026-05-07 00:13 | 34.62670 | -116.21167 | 31650 ft | 499 kts | 227° |
| 2026-05-07 00:14 | 34.60283 | -116.24195 | 31248 ft | 493 kts | 226° |
| 2026-05-07 00:14 | 34.57929 | -116.27179 | 30850 ft | 487 kts | 226° |
| 2026-05-07 00:14 | 34.55594 | -116.30136 | 30400 ft | 483 kts | 226° |
| 2026-05-07 00:14 | 34.53277 | -116.33068 | 29884 ft | 480 kts | 226° |
| 2026-05-07 00:15 | 34.50973 | -116.35981 | 29361 ft | 476 kts | 226° |
| 2026-05-07 00:15 | 34.48690 | -116.38866 | 28818 ft | 472 kts | 226° |
| 2026-05-07 00:15 | 34.46431 | -116.41719 | 28307 ft | 468 kts | 226° |
| 2026-05-07 00:15 | 34.44218 | -116.44510 | 27800 ft | 464 kts | 226° |
| 2026-05-07 00:16 | 34.41991 | -116.47380 | 27277 ft | 460 kts | 231° |
| 2026-05-07 00:16 | 34.40297 | -116.50619 | 26745 ft | 454 kts | 246° |
| 2026-05-07 00:16 | 34.38942 | -116.54046 | 26314 ft | 448 kts | 247° |
| 2026-05-07 00:16 | 34.37621 | -116.57446 | 25848 ft | 445 kts | 247° |
| 2026-05-07 00:17 | 34.36286 | -116.60807 | 25379 ft | 442 kts | 246° |
| 2026-05-07 00:17 | 34.34930 | -116.64129 | 24926 ft | 439 kts | 246° |
| 2026-05-07 00:17 | 34.33569 | -116.67420 | 24489 ft | 436 kts | 245° |
| 2026-05-07 00:17 | 34.32230 | -116.70686 | 24068 ft | 432 kts | 246° |
| 2026-05-07 00:18 | 34.30934 | -116.73903 | 23655 ft | 429 kts | 246° |
| 2026-05-07 00:18 | 34.29637 | -116.77140 | 23162 ft | 426 kts | 246° |
| 2026-05-07 00:18 | 34.28334 | -116.80392 | 22684 ft | 423 kts | 246° |
| 2026-05-07 00:18 | 34.27071 | -116.83535 | 22211 ft | 419 kts | 246° |
| 2026-05-07 00:19 | 34.25784 | -116.86732 | 21730 ft | 415 kts | 246° |
| 2026-05-07 00:19 | 34.24544 | -116.89805 | 21151 ft | 410 kts | 246° |
| 2026-05-07 00:19 | 34.23298 | -116.92891 | 20490 ft | 408 kts | 246° |
| 2026-05-07 00:19 | 34.22055 | -116.95965 | 19997 ft | 407 kts | 246° |
| 2026-05-07 00:20 | 34.20843 | -116.99042 | 19526 ft | 405 kts | 250° |
| 2026-05-07 00:20 | 34.19893 | -117.02219 | 19089 ft | 400 kts | 255° |
| 2026-05-07 00:20 | 34.19092 | -117.05419 | 18613 ft | 396 kts | 257° |
| 2026-05-07 00:20 | 34.18307 | -117.08582 | 18186 ft | 391 kts | 256° |
| 2026-05-07 00:21 | 34.17490 | -117.11706 | 17694 ft | 389 kts | 256° |
| 2026-05-07 00:21 | 34.16656 | -117.14806 | 17215 ft | 387 kts | 255° |
| 2026-05-07 00:21 | 34.15817 | -117.17872 | 16787 ft | 384 kts | 254° |
| 2026-05-07 00:21 | 34.14976 | -117.20916 | 16341 ft | 381 kts | 254° |
| 2026-05-07 00:22 | 34.14142 | -117.23935 | 15921 ft | 378 kts | 254° |
| 2026-05-07 00:22 | 34.13312 | -117.26946 | 15440 ft | 378 kts | 254° |
| 2026-05-07 00:22 | 34.12484 | -117.29948 | 15002 ft | 375 kts | 254° |
| 2026-05-07 00:22 | 34.11662 | -117.32927 | 14583 ft | 373 kts | 254° |
| 2026-05-07 00:23 | 34.10843 | -117.35889 | 14159 ft | 371 kts | 253° |
| 2026-05-07 00:23 | 34.10046 | -117.38847 | 13690 ft | 370 kts | 255° |
| 2026-05-07 00:23 | 34.09277 | -117.41804 | 13258 ft | 367 kts | 253° |
| 2026-05-07 00:23 | 34.08414 | -117.44676 | 12952 ft | 362 kts | 250° |